sensor_id;sensor_type;location;lat;lon;timestamp;P1;durP1;ratioP1;P2;durP2;ratioP2
9667;SDS011;4872;48.316;10.650;2022-12-18T04:50:51;52.87;;;25.70;;
9667;SDS011;4872;48.316;10.650;2022-12-18T04:53:17;56.43;;;27.80;;
9667;SDS011;4872;48.316;10.650;2022-12-18T04:55:44;45.10;;;24.10;;
9667;SDS011;4872;48.316;10.650;2022-12-18T04:58:11;50.93;;;25.73;;
9667;SDS011;4872;48.316;10.650;2022-12-18T05:00:38;49.73;;;26.00;;
9667;SDS011;4872;48.316;10.650;2022-12-18T05:03:04;50.93;;;24.27;;
9667;SDS011;4872;48.316;10.650;2022-12-18T05:05:31;45.07;;;23.93;;
9667;SDS011;4872;48.316;10.650;2022-12-18T05:08:01;48.83;;;24.53;;
9667;SDS011;4872;48.316;10.650;2022-12-18T05:10:28;47.97;;;24.93;;
9667;SDS011;4872;48.316;10.650;2022-12-18T05:12:55;47.47;;;22.53;;
9667;SDS011;4872;48.316;10.650;2022-12-18T05:15:24;45.70;;;22.23;;
9667;SDS011;4872;48.316;10.650;2022-12-18T05:17:53;47.50;;;24.03;;
9667;SDS011;4872;48.316;10.650;2022-12-18T05:20:20;43.43;;;22.90;;
9667;SDS011;4872;48.316;10.650;2022-12-18T05:22:47;39.37;;;21.43;;
9667;SDS011;4872;48.316;10.650;2022-12-18T05:25:15;40.43;;;21.17;;
9667;SDS011;4872;48.316;10.650;2022-12-18T05:27:42;41.50;;;22.03;;
9667;SDS011;4872;48.316;10.650;2022-12-18T05:30:09;43.50;;;23.33;;
9667;SDS011;4872;48.316;10.650;2022-12-18T05:32:37;44.50;;;23.93;;
9667;SDS011;4872;48.316;10.650;2022-12-18T05:35:04;47.70;;;24.90;;
9667;SDS011;4872;48.316;10.650;2022-12-18T05:37:33;44.07;;;24.37;;
9667;SDS011;4872;48.316;10.650;2022-12-18T05:40:00;48.50;;;24.37;;
9667;SDS011;4872;48.316;10.650;2022-12-18T05:42:28;51.87;;;26.33;;
9667;SDS011;4872;48.316;10.650;2022-12-18T05:44:56;41.67;;;23.00;;
9667;SDS011;4872;48.316;10.650;2022-12-18T05:47:23;49.30;;;25.10;;
9667;SDS011;4872;48.316;10.650;2022-12-18T05:49:49;47.67;;;24.00;;
9667;SDS011;4872;48.316;10.650;2022-12-18T05:52:16;47.27;;;24.07;;
9667;SDS011;4872;48.316;10.650;2022-12-18T05:54:43;43.73;;;23.83;;
9667;SDS011;4872;48.316;10.650;2022-12-18T05:57:10;45.63;;;21.87;;
9667;SDS011;4872;48.316;10.650;2022-12-18T05:59:38;45.20;;;23.57;;
9667;SDS011;4872;48.316;10.650;2022-12-18T06:02:05;42.53;;;24.43;;
9667;SDS011;4872;48.316;10.650;2022-12-18T06:04:31;51.83;;;25.33;;
9667;SDS011;4872;48.316;10.650;2022-12-18T06:06:58;46.97;;;24.27;;
9667;SDS011;4872;48.316;10.650;2022-12-18T06:09:25;47.53;;;23.90;;
9667;SDS011;4872;48.316;10.650;2022-12-18T06:11:52;48.37;;;25.43;;
9667;SDS011;4872;48.316;10.650;2022-12-18T06:14:19;42.83;;;22.53;;
9667;SDS011;4872;48.316;10.650;2022-12-18T06:16:47;44.07;;;22.30;;
9667;SDS011;4872;48.316;10.650;2022-12-18T06:19:16;45.03;;;24.93;;
9667;SDS011;4872;48.316;10.650;2022-12-18T06:21:43;43.90;;;22.20;;
9667;SDS011;4872;48.316;10.650;2022-12-18T06:24:10;50.30;;;24.50;;
9667;SDS011;4872;48.316;10.650;2022-12-18T06:26:37;46.10;;;25.67;;
9667;SDS011;4872;48.316;10.650;2022-12-18T06:29:04;49.50;;;25.53;;
9667;SDS011;4872;48.316;10.650;2022-12-18T06:31:30;51.37;;;24.83;;
9667;SDS011;4872;48.316;10.650;2022-12-18T06:33:59;53.17;;;25.93;;
9667;SDS011;4872;48.316;10.650;2022-12-18T06:36:27;49.43;;;26.50;;
9667;SDS011;4872;48.316;10.650;2022-12-18T06:38:54;42.40;;;23.30;;
9667;SDS011;4872;48.316;10.650;2022-12-18T06:41:22;43.77;;;24.07;;
9667;SDS011;4872;48.316;10.650;2022-12-18T06:43:49;45.23;;;23.30;;
9667;SDS011;4872;48.316;10.650;2022-12-18T06:46:16;47.70;;;25.03;;
9667;SDS011;4872;48.316;10.650;2022-12-18T06:48:46;48.07;;;23.70;;
9667;SDS011;4872;48.316;10.650;2022-12-18T06:51:16;49.47;;;24.40;;
9667;SDS011;4872;48.316;10.650;2022-12-18T06:53:44;48.90;;;24.63;;
9667;SDS011;4872;48.316;10.650;2022-12-18T06:56:10;51.57;;;25.73;;
9667;SDS011;4872;48.316;10.650;2022-12-18T06:58:37;49.97;;;25.27;;
9667;SDS011;4872;48.316;10.650;2022-12-18T07:01:05;51.03;;;26.00;;
9667;SDS011;4872;48.316;10.650;2022-12-18T07:03:33;41.57;;;23.87;;
9667;SDS011;4872;48.316;10.650;2022-12-18T07:06:00;51.73;;;27.70;;
9667;SDS011;4872;48.316;10.650;2022-12-18T07:08:29;43.50;;;23.70;;
9667;SDS011;4872;48.316;10.650;2022-12-18T07:10:56;53.70;;;27.40;;
9667;SDS011;4872;48.316;10.650;2022-12-18T07:13:23;45.73;;;25.47;;
9667;SDS011;4872;48.316;10.650;2022-12-18T07:15:50;47.40;;;25.70;;
9667;SDS011;4872;48.316;10.650;2022-12-18T07:18:17;49.23;;;24.00;;
9667;SDS011;4872;48.316;10.650;2022-12-18T07:20:44;50.77;;;26.70;;
9667;SDS011;4872;48.316;10.650;2022-12-18T07:23:10;46.93;;;25.23;;
9667;SDS011;4872;48.316;10.650;2022-12-18T07:25:38;52.53;;;26.23;;
9667;SDS011;4872;48.316;10.650;2022-12-18T07:28:05;53.10;;;26.60;;
9667;SDS011;4872;48.316;10.650;2022-12-18T07:30:32;51.73;;;27.23;;
9667;SDS011;4872;48.316;10.650;2022-12-18T07:32:59;51.63;;;26.90;;
9667;SDS011;4872;48.316;10.650;2022-12-18T07:35:26;50.03;;;26.27;;
9667;SDS011;4872;48.316;10.650;2022-12-18T07:37:52;47.90;;;24.70;;
9667;SDS011;4872;48.316;10.650;2022-12-18T07:40:19;48.17;;;25.63;;
9667;SDS011;4872;48.316;10.650;2022-12-18T07:42:47;53.03;;;26.90;;
9667;SDS011;4872;48.316;10.650;2022-12-18T07:45:14;53.83;;;26.40;;
9667;SDS011;4872;48.316;10.650;2022-12-18T07:47:41;54.63;;;26.80;;
9667;SDS011;4872;48.316;10.650;2022-12-18T07:50:08;57.37;;;28.33;;
9667;SDS011;4872;48.316;10.650;2022-12-18T07:52:35;56.00;;;27.37;;
9667;SDS011;4872;48.316;10.650;2022-12-18T07:55:02;55.53;;;26.87;;
9667;SDS011;4872;48.316;10.650;2022-12-18T07:57:29;55.57;;;26.87;;
9667;SDS011;4872;48.316;10.650;2022-12-18T07:59:57;55.83;;;26.30;;
9667;SDS011;4872;48.316;10.650;2022-12-18T08:02:24;53.03;;;28.17;;
9667;SDS011;4872;48.316;10.650;2022-12-18T08:04:51;51.87;;;27.00;;
9667;SDS011;4872;48.316;10.650;2022-12-18T08:07:17;51.07;;;27.00;;
9667;SDS011;4872;48.316;10.650;2022-12-18T08:09:44;50.83;;;24.63;;
9667;SDS011;4872;48.316;10.650;2022-12-18T08:12:11;49.90;;;26.30;;
9667;SDS011;4872;48.316;10.650;2022-12-18T08:14:38;56.93;;;27.20;;
9667;SDS011;4872;48.316;10.650;2022-12-18T08:17:06;51.27;;;28.17;;
9667;SDS011;4872;48.316;10.650;2022-12-18T08:19:32;52.73;;;27.50;;
9667;SDS011;4872;48.316;10.650;2022-12-18T08:21:59;49.73;;;25.83;;
9667;SDS011;4872;48.316;10.650;2022-12-18T08:24:26;51.47;;;25.40;;
9667;SDS011;4872;48.316;10.650;2022-12-18T08:26:53;47.43;;;26.80;;
9667;SDS011;4872;48.316;10.650;2022-12-18T08:29:22;49.73;;;24.90;;
9667;SDS011;4872;48.316;10.650;2022-12-18T08:31:48;57.60;;;26.37;;
9667;SDS011;4872;48.316;10.650;2022-12-18T08:34:16;56.67;;;29.73;;
9667;SDS011;4872;48.316;10.650;2022-12-18T08:36:43;49.60;;;27.40;;
9667;SDS011;4872;48.316;10.650;2022-12-18T08:39:10;57.50;;;29.43;;
9667;SDS011;4872;48.316;10.650;2022-12-18T08:41:37;49.77;;;27.47;;
9667;SDS011;4872;48.316;10.650;2022-12-18T08:44:03;50.60;;;28.43;;
9667;SDS011;4872;48.316;10.650;2022-12-18T08:46:48;58.67;;;29.07;;
9667;SDS011;4872;48.316;10.650;2022-12-18T08:49:14;63.97;;;30.83;;
9667;SDS011;4872;48.316;10.650;2022-12-18T08:51:42;54.73;;;27.67;;
9667;SDS011;4872;48.316;10.650;2022-12-18T08:54:10;52.10;;;27.00;;
9667;SDS011;4872;48.316;10.650;2022-12-18T08:56:38;59.97;;;31.87;;
9667;SDS011;4872;48.316;10.650;2022-12-18T08:59:05;53.13;;;26.63;;
9667;SDS011;4872;48.316;10.650;2022-12-18T09:01:31;47.37;;;25.93;;
9667;SDS011;4872;48.316;10.650;2022-12-18T09:03:58;45.40;;;25.57;;
9667;SDS011;4872;48.316;10.650;2022-12-18T09:06:26;51.37;;;27.77;;
9667;SDS011;4872;48.316;10.650;2022-12-18T09:08:53;53.87;;;27.80;;
9667;SDS011;4872;48.316;10.650;2022-12-18T09:11:21;51.13;;;27.00;;
9667;SDS011;4872;48.316;10.650;2022-12-18T09:13:48;52.63;;;26.13;;
9667;SDS011;4872;48.316;10.650;2022-12-18T09:16:16;49.80;;;25.50;;
9667;SDS011;4872;48.316;10.650;2022-12-18T09:18:43;47.93;;;25.37;;
9667;SDS011;4872;48.316;10.650;2022-12-18T09:21:10;48.77;;;25.20;;
9667;SDS011;4872;48.316;10.650;2022-12-18T09:23:39;49.93;;;27.70;;
9667;SDS011;4872;48.316;10.650;2022-12-18T09:26:06;50.53;;;26.67;;
9667;SDS011;4872;48.316;10.650;2022-12-18T09:28:33;49.60;;;27.70;;
9667;SDS011;4872;48.316;10.650;2022-12-18T09:31:03;49.90;;;28.03;;
9667;SDS011;4872;48.316;10.650;2022-12-18T09:33:31;47.53;;;26.27;;
9667;SDS011;4872;48.316;10.650;2022-12-18T09:36:00;56.60;;;27.43;;
9667;SDS011;4872;48.316;10.650;2022-12-18T09:38:28;45.13;;;25.20;;
9667;SDS011;4872;48.316;10.650;2022-12-18T09:40:57;51.97;;;27.20;;
9667;SDS011;4872;48.316;10.650;2022-12-18T09:43:26;57.10;;;26.17;;
9667;SDS011;4872;48.316;10.650;2022-12-18T09:46:00;48.83;;;24.93;;
9667;SDS011;4872;48.316;10.650;2022-12-18T09:48:30;45.60;;;24.83;;
9667;SDS011;4872;48.316;10.650;2022-12-18T09:51:00;47.90;;;26.30;;
9667;SDS011;4872;48.316;10.650;2022-12-18T09:53:32;44.90;;;24.73;;
9667;SDS011;4872;48.316;10.650;2022-12-18T09:56:05;51.17;;;26.47;;
9667;SDS011;4872;48.316;10.650;2022-12-18T09:58:39;49.60;;;25.07;;
9667;SDS011;4872;48.316;10.650;2022-12-18T10:01:11;49.90;;;25.30;;
9667;SDS011;4872;48.316;10.650;2022-12-18T10:03:41;45.27;;;24.80;;
9667;SDS011;4872;48.316;10.650;2022-12-18T10:06:10;47.03;;;25.70;;
9667;SDS011;4872;48.316;10.650;2022-12-18T10:08:42;46.40;;;26.03;;
9667;SDS011;4872;48.316;10.650;2022-12-18T10:11:24;46.20;;;26.20;;
9667;SDS011;4872;48.316;10.650;2022-12-18T10:14:00;47.20;;;26.13;;
9667;SDS011;4872;48.316;10.650;2022-12-18T10:16:35;47.00;;;25.80;;
9667;SDS011;4872;48.316;10.650;2022-12-18T10:19:11;50.57;;;25.00;;
9667;SDS011;4872;48.316;10.650;2022-12-18T10:21:48;43.97;;;24.23;;
9667;SDS011;4872;48.316;10.650;2022-12-18T10:24:23;43.73;;;23.97;;
9667;SDS011;4872;48.316;10.650;2022-12-18T10:26:59;42.43;;;24.33;;
9667;SDS011;4872;48.316;10.650;2022-12-18T10:29:37;45.87;;;25.53;;
9667;SDS011;4872;48.316;10.650;2022-12-18T10:32:04;46.53;;;25.37;;
9667;SDS011;4872;48.316;10.650;2022-12-18T10:34:31;49.83;;;26.53;;
9667;SDS011;4872;48.316;10.650;2022-12-18T10:36:59;47.00;;;25.87;;
9667;SDS011;4872;48.316;10.650;2022-12-18T10:39:27;43.97;;;23.97;;
9667;SDS011;4872;48.316;10.650;2022-12-18T10:41:59;46.00;;;26.07;;
9667;SDS011;4872;48.316;10.650;2022-12-18T10:44:36;41.40;;;22.53;;
9667;SDS011;4872;48.316;10.650;2022-12-18T10:47:03;40.93;;;23.30;;
9667;SDS011;4872;48.316;10.650;2022-12-18T10:49:33;43.60;;;23.47;;
9667;SDS011;4872;48.316;10.650;2022-12-18T10:52:05;48.50;;;25.83;;
9667;SDS011;4872;48.316;10.650;2022-12-18T10:54:40;46.53;;;24.90;;
9667;SDS011;4872;48.316;10.650;2022-12-18T10:57:18;41.93;;;22.83;;
9667;SDS011;4872;48.316;10.650;2022-12-18T10:59:57;41.57;;;23.00;;
9667;SDS011;4872;48.316;10.650;2022-12-18T11:02:27;46.07;;;25.63;;
9667;SDS011;4872;48.316;10.650;2022-12-18T11:04:59;47.37;;;24.80;;
9667;SDS011;4872;48.316;10.650;2022-12-18T11:07:26;38.77;;;22.97;;
9667;SDS011;4872;48.316;10.650;2022-12-18T11:10:15;40.23;;;22.17;;
9667;SDS011;4872;48.316;10.650;2022-12-18T11:12:44;38.87;;;20.20;;
9667;SDS011;4872;48.316;10.650;2022-12-18T11:15:14;40.57;;;21.00;;
9667;SDS011;4872;48.316;10.650;2022-12-18T11:17:45;36.53;;;20.60;;
9667;SDS011;4872;48.316;10.650;2022-12-18T11:20:30;34.03;;;22.23;;
9667;SDS011;4872;48.316;10.650;2022-12-18T11:22:59;36.57;;;21.47;;
9667;SDS011;4872;48.316;10.650;2022-12-18T11:25:27;44.30;;;25.23;;
9667;SDS011;4872;48.316;10.650;2022-12-18T11:27:56;36.53;;;21.67;;
9667;SDS011;4872;48.316;10.650;2022-12-18T11:30:26;39.10;;;21.93;;
9667;SDS011;4872;48.316;10.650;2022-12-18T11:32:55;41.10;;;23.37;;
9667;SDS011;4872;48.316;10.650;2022-12-18T11:35:30;41.83;;;24.37;;
9667;SDS011;4872;48.316;10.650;2022-12-18T11:38:04;47.50;;;26.57;;
9667;SDS011;4872;48.316;10.650;2022-12-18T11:40:44;43.67;;;25.50;;
9667;SDS011;4872;48.316;10.650;2022-12-18T11:43:17;51.67;;;27.20;;
9667;SDS011;4872;48.316;10.650;2022-12-18T11:45:49;45.03;;;24.13;;
9667;SDS011;4872;48.316;10.650;2022-12-18T11:48:20;41.50;;;24.30;;
9667;SDS011;4872;48.316;10.650;2022-12-18T11:50:51;37.27;;;20.83;;
9667;SDS011;4872;48.316;10.650;2022-12-18T11:53:20;42.27;;;23.47;;
9667;SDS011;4872;48.316;10.650;2022-12-18T11:55:49;37.87;;;22.27;;
9667;SDS011;4872;48.316;10.650;2022-12-18T11:58:33;38.83;;;22.23;;
9667;SDS011;4872;48.316;10.650;2022-12-18T12:01:10;37.33;;;21.70;;
9667;SDS011;4872;48.316;10.650;2022-12-18T12:03:51;37.67;;;22.53;;
9667;SDS011;4872;48.316;10.650;2022-12-18T12:06:45;42.47;;;26.07;;
9667;SDS011;4872;48.316;10.650;2022-12-18T12:09:20;37.63;;;21.63;;
9667;SDS011;4872;48.316;10.650;2022-12-18T12:11:59;41.60;;;23.10;;
9667;SDS011;4872;48.316;10.650;2022-12-18T12:14:42;41.80;;;23.47;;
9667;SDS011;4872;48.316;10.650;2022-12-18T12:17:18;40.83;;;24.50;;
9667;SDS011;4872;48.316;10.650;2022-12-18T12:19:55;37.87;;;21.80;;
9667;SDS011;4872;48.316;10.650;2022-12-18T12:22:30;41.33;;;24.73;;
9667;SDS011;4872;48.316;10.650;2022-12-18T12:25:07;40.00;;;23.47;;
9667;SDS011;4872;48.316;10.650;2022-12-18T12:27:43;39.37;;;22.17;;
9667;SDS011;4872;48.316;10.650;2022-12-18T12:30:21;41.43;;;23.93;;
9667;SDS011;4872;48.316;10.650;2022-12-18T12:32:57;39.37;;;23.40;;
9667;SDS011;4872;48.316;10.650;2022-12-18T12:35:37;42.73;;;23.80;;
9667;SDS011;4872;48.316;10.650;2022-12-18T12:38:13;44.70;;;25.70;;
9667;SDS011;4872;48.316;10.650;2022-12-18T12:40:47;40.73;;;22.80;;
9667;SDS011;4872;48.316;10.650;2022-12-18T12:43:20;37.03;;;22.20;;
9667;SDS011;4872;48.316;10.650;2022-12-18T12:45:52;41.03;;;23.67;;
9667;SDS011;4872;48.316;10.650;2022-12-18T12:48:26;45.87;;;23.37;;
9667;SDS011;4872;48.316;10.650;2022-12-18T12:50:59;42.20;;;23.47;;
9667;SDS011;4872;48.316;10.650;2022-12-18T12:53:30;46.43;;;25.57;;
9667;SDS011;4872;48.316;10.650;2022-12-18T12:56:02;41.73;;;24.93;;
9667;SDS011;4872;48.316;10.650;2022-12-18T12:58:31;43.53;;;24.10;;
9667;SDS011;4872;48.316;10.650;2022-12-18T13:01:12;41.73;;;23.70;;
9667;SDS011;4872;48.316;10.650;2022-12-18T13:03:46;43.17;;;24.03;;
9667;SDS011;4872;48.316;10.650;2022-12-18T13:06:23;39.70;;;24.20;;
9667;SDS011;4872;48.316;10.650;2022-12-18T13:08:59;40.57;;;23.30;;
9667;SDS011;4872;48.316;10.650;2022-12-18T13:11:31;38.30;;;23.57;;
9667;SDS011;4872;48.316;10.650;2022-12-18T13:14:20;45.27;;;24.37;;
9667;SDS011;4872;48.316;10.650;2022-12-18T13:16:50;43.83;;;22.83;;
9667;SDS011;4872;48.316;10.650;2022-12-18T13:19:23;42.17;;;24.30;;
9667;SDS011;4872;48.316;10.650;2022-12-18T13:21:53;42.23;;;22.83;;
9667;SDS011;4872;48.316;10.650;2022-12-18T13:24:23;41.23;;;23.50;;
9667;SDS011;4872;48.316;10.650;2022-12-18T13:26:52;39.80;;;23.37;;
9667;SDS011;4872;48.316;10.650;2022-12-18T13:32:23;44.50;;;25.17;;
9667;SDS011;4872;48.316;10.650;2022-12-18T13:37:56;41.43;;;24.47;;
9667;SDS011;4872;48.316;10.650;2022-12-18T13:43:26;41.80;;;25.20;;
9667;SDS011;4872;48.316;10.650;2022-12-18T13:46:03;44.10;;;24.77;;
9667;SDS011;4872;48.316;10.650;2022-12-18T13:48:35;39.23;;;23.60;;
9667;SDS011;4872;48.316;10.650;2022-12-18T13:51:05;36.37;;;23.33;;
9667;SDS011;4872;48.316;10.650;2022-12-18T13:53:36;40.30;;;23.67;;
9667;SDS011;4872;48.316;10.650;2022-12-18T13:56:08;44.63;;;24.80;;
9667;SDS011;4872;48.316;10.650;2022-12-18T13:58:34;37.67;;;23.73;;
9667;SDS011;4872;48.316;10.650;2022-12-18T14:01:01;40.33;;;23.20;;
9667;SDS011;4872;48.316;10.650;2022-12-18T14:03:29;40.17;;;23.77;;
9667;SDS011;4872;48.316;10.650;2022-12-18T14:06:00;43.17;;;22.80;;
9667;SDS011;4872;48.316;10.650;2022-12-18T14:08:34;42.37;;;23.40;;
9667;SDS011;4872;48.316;10.650;2022-12-18T14:11:04;44.63;;;24.43;;
9667;SDS011;4872;48.316;10.650;2022-12-18T14:13:33;38.57;;;22.37;;
9667;SDS011;4872;48.316;10.650;2022-12-18T14:16:03;41.17;;;22.60;;
9667;SDS011;4872;48.316;10.650;2022-12-18T14:18:34;39.80;;;22.50;;
9667;SDS011;4872;48.316;10.650;2022-12-18T14:21:14;42.60;;;23.37;;
9667;SDS011;4872;48.316;10.650;2022-12-18T14:23:45;40.20;;;23.23;;
9667;SDS011;4872;48.316;10.650;2022-12-18T14:26:22;45.90;;;25.83;;
9667;SDS011;4872;48.316;10.650;2022-12-18T14:28:53;45.73;;;26.17;;
9667;SDS011;4872;48.316;10.650;2022-12-18T14:31:20;54.43;;;30.03;;
9667;SDS011;4872;48.316;10.650;2022-12-18T14:33:48;52.80;;;29.63;;
9667;SDS011;4872;48.316;10.650;2022-12-18T14:36:18;52.87;;;28.67;;
9667;SDS011;4872;48.316;10.650;2022-12-18T14:38:47;51.80;;;28.00;;
9667;SDS011;4872;48.316;10.650;2022-12-18T14:41:16;63.37;;;31.50;;
9667;SDS011;4872;48.316;10.650;2022-12-18T14:43:45;38.90;;;23.10;;
9667;SDS011;4872;48.316;10.650;2022-12-18T14:46:26;43.30;;;25.60;;
9667;SDS011;4872;48.316;10.650;2022-12-18T14:49:00;43.40;;;26.27;;
9667;SDS011;4872;48.316;10.650;2022-12-18T14:51:31;75.97;;;37.30;;
9667;SDS011;4872;48.316;10.650;2022-12-18T14:54:00;58.63;;;32.03;;
9667;SDS011;4872;48.316;10.650;2022-12-18T14:56:29;77.07;;;37.73;;
9667;SDS011;4872;48.316;10.650;2022-12-18T14:58:58;65.93;;;33.70;;
9667;SDS011;4872;48.316;10.650;2022-12-18T15:01:27;57.33;;;28.43;;
9667;SDS011;4872;48.316;10.650;2022-12-18T15:03:57;62.33;;;30.67;;
9667;SDS011;4872;48.316;10.650;2022-12-18T15:06:29;70.30;;;33.13;;
9667;SDS011;4872;48.316;10.650;2022-12-18T15:09:00;67.00;;;35.37;;
9667;SDS011;4872;48.316;10.650;2022-12-18T15:11:30;72.20;;;34.53;;
9667;SDS011;4872;48.316;10.650;2022-12-18T15:16:50;57.83;;;31.50;;
9667;SDS011;4872;48.316;10.650;2022-12-18T15:19:19;53.57;;;29.30;;
9667;SDS011;4872;48.316;10.650;2022-12-18T15:21:48;48.57;;;25.57;;
9667;SDS011;4872;48.316;10.650;2022-12-18T15:24:16;48.43;;;27.40;;
9667;SDS011;4872;48.316;10.650;2022-12-18T15:26:45;46.07;;;24.93;;
9667;SDS011;4872;48.316;10.650;2022-12-18T15:29:15;40.43;;;24.33;;
9667;SDS011;4872;48.316;10.650;2022-12-18T15:31:45;48.97;;;25.73;;
9667;SDS011;4872;48.316;10.650;2022-12-18T15:34:25;42.40;;;24.07;;
9667;SDS011;4872;48.316;10.650;2022-12-18T15:36:54;44.50;;;24.23;;
9667;SDS011;4872;48.316;10.650;2022-12-18T15:39:21;41.43;;;23.97;;
9667;SDS011;4872;48.316;10.650;2022-12-18T15:41:47;47.27;;;24.63;;
9667;SDS011;4872;48.316;10.650;2022-12-18T15:44:32;44.47;;;24.03;;
9667;SDS011;4872;48.316;10.650;2022-12-18T15:46:59;41.73;;;21.43;;
9667;SDS011;4872;48.316;10.650;2022-12-18T15:49:26;39.73;;;21.43;;
9667;SDS011;4872;48.316;10.650;2022-12-18T15:51:54;45.87;;;25.63;;
9667;SDS011;4872;48.316;10.650;2022-12-18T15:54:25;45.77;;;24.43;;
9667;SDS011;4872;48.316;10.650;2022-12-18T15:57:09;54.47;;;28.50;;
9667;SDS011;4872;48.316;10.650;2022-12-18T15:59:51;42.77;;;24.53;;
9667;SDS011;4872;48.316;10.650;2022-12-18T16:02:20;47.27;;;23.07;;
9667;SDS011;4872;48.316;10.650;2022-12-18T16:04:48;42.87;;;22.97;;
9667;SDS011;4872;48.316;10.650;2022-12-18T16:07:17;43.30;;;23.37;;
9667;SDS011;4872;48.316;10.650;2022-12-18T16:09:44;42.20;;;23.43;;
9667;SDS011;4872;48.316;10.650;2022-12-18T16:12:14;44.53;;;22.50;;
9667;SDS011;4872;48.316;10.650;2022-12-18T16:14:42;38.93;;;22.83;;
9667;SDS011;4872;48.316;10.650;2022-12-18T16:17:10;43.80;;;23.00;;
9667;SDS011;4872;48.316;10.650;2022-12-18T16:19:38;40.40;;;23.00;;
9667;SDS011;4872;48.316;10.650;2022-12-18T16:22:05;48.00;;;25.37;;
9667;SDS011;4872;48.316;10.650;2022-12-18T16:24:40;43.77;;;23.83;;
9667;SDS011;4872;48.316;10.650;2022-12-18T16:27:07;43.37;;;25.30;;
9667;SDS011;4872;48.316;10.650;2022-12-18T16:29:34;46.87;;;26.13;;
9667;SDS011;4872;48.316;10.650;2022-12-18T16:32:01;46.67;;;25.83;;
9667;SDS011;4872;48.316;10.650;2022-12-18T16:34:28;45.07;;;24.13;;
9667;SDS011;4872;48.316;10.650;2022-12-18T16:36:56;43.47;;;24.57;;
9667;SDS011;4872;48.316;10.650;2022-12-18T16:39:24;44.73;;;24.83;;
9667;SDS011;4872;48.316;10.650;2022-12-18T16:41:52;55.27;;;33.47;;
9667;SDS011;4872;48.316;10.650;2022-12-18T16:44:19;43.93;;;24.07;;
9667;SDS011;4872;48.316;10.650;2022-12-18T16:46:46;43.10;;;25.00;;
9667;SDS011;4872;48.316;10.650;2022-12-18T16:49:13;51.27;;;28.33;;
9667;SDS011;4872;48.316;10.650;2022-12-18T16:51:41;43.43;;;23.10;;
9667;SDS011;4872;48.316;10.650;2022-12-18T16:54:08;39.70;;;23.80;;
9667;SDS011;4872;48.316;10.650;2022-12-18T16:56:35;43.93;;;24.43;;
9667;SDS011;4872;48.316;10.650;2022-12-18T16:59:04;43.23;;;25.50;;
9667;SDS011;4872;48.316;10.650;2022-12-18T17:01:32;44.57;;;25.30;;
9667;SDS011;4872;48.316;10.650;2022-12-18T17:03:59;45.40;;;25.23;;
9667;SDS011;4872;48.316;10.650;2022-12-18T17:06:28;41.10;;;21.73;;
9667;SDS011;4872;48.316;10.650;2022-12-18T17:08:56;44.20;;;24.07;;
9667;SDS011;4872;48.316;10.650;2022-12-18T17:11:24;43.73;;;24.10;;
9667;SDS011;4872;48.316;10.650;2022-12-18T17:13:52;40.00;;;22.30;;
9667;SDS011;4872;48.316;10.650;2022-12-18T17:16:20;41.17;;;22.60;;
9667;SDS011;4872;48.316;10.650;2022-12-18T17:18:47;44.30;;;22.63;;
9667;SDS011;4872;48.316;10.650;2022-12-18T17:21:14;40.90;;;21.67;;
9667;SDS011;4872;48.316;10.650;2022-12-18T17:23:42;40.07;;;22.80;;
9667;SDS011;4872;48.316;10.650;2022-12-18T17:26:09;45.30;;;23.90;;
9667;SDS011;4872;48.316;10.650;2022-12-18T17:28:36;40.73;;;22.97;;
9667;SDS011;4872;48.316;10.650;2022-12-18T17:31:09;40.47;;;21.93;;
9667;SDS011;4872;48.316;10.650;2022-12-18T17:33:38;43.80;;;23.37;;
9667;SDS011;4872;48.316;10.650;2022-12-18T17:36:05;43.83;;;24.03;;
9667;SDS011;4872;48.316;10.650;2022-12-18T17:38:33;46.30;;;25.00;;
9667;SDS011;4872;48.316;10.650;2022-12-18T17:41:00;47.63;;;24.67;;
9667;SDS011;4872;48.316;10.650;2022-12-18T17:43:27;47.80;;;26.80;;
9667;SDS011;4872;48.316;10.650;2022-12-18T17:45:54;41.20;;;24.43;;
9667;SDS011;4872;48.316;10.650;2022-12-18T17:48:21;50.40;;;25.17;;
9667;SDS011;4872;48.316;10.650;2022-12-18T17:50:49;42.50;;;23.83;;
9667;SDS011;4872;48.316;10.650;2022-12-18T17:53:16;40.97;;;24.77;;
9667;SDS011;4872;48.316;10.650;2022-12-18T17:55:43;45.73;;;24.30;;
9667;SDS011;4872;48.316;10.650;2022-12-18T17:58:18;47.07;;;26.07;;
9667;SDS011;4872;48.316;10.650;2022-12-18T18:00:45;46.13;;;26.47;;
9667;SDS011;4872;48.316;10.650;2022-12-18T18:03:11;93.60;;;50.47;;
9667;SDS011;4872;48.316;10.650;2022-12-18T18:05:38;62.20;;;33.67;;
9667;SDS011;4872;48.316;10.650;2022-12-18T18:08:06;48.40;;;25.50;;
9667;SDS011;4872;48.316;10.650;2022-12-18T18:10:34;49.00;;;25.13;;
9667;SDS011;4872;48.316;10.650;2022-12-18T18:13:02;54.17;;;28.37;;
9667;SDS011;4872;48.316;10.650;2022-12-18T18:15:53;47.83;;;28.90;;
9667;SDS011;4872;48.316;10.650;2022-12-18T18:18:21;48.00;;;26.77;;
9667;SDS011;4872;48.316;10.650;2022-12-18T18:20:47;45.33;;;25.40;;
9667;SDS011;4872;48.316;10.650;2022-12-18T18:23:16;47.17;;;23.83;;
9667;SDS011;4872;48.316;10.650;2022-12-18T18:25:42;44.27;;;24.57;;
9667;SDS011;4872;48.316;10.650;2022-12-18T18:28:10;46.87;;;25.37;;
9667;SDS011;4872;48.316;10.650;2022-12-18T18:30:38;50.70;;;25.73;;
9667;SDS011;4872;48.316;10.650;2022-12-18T18:33:04;55.97;;;29.10;;
9667;SDS011;4872;48.316;10.650;2022-12-18T18:35:31;54.77;;;28.47;;
9667;SDS011;4872;48.316;10.650;2022-12-18T18:37:58;50.83;;;27.37;;
9667;SDS011;4872;48.316;10.650;2022-12-18T18:40:28;51.57;;;28.43;;
9667;SDS011;4872;48.316;10.650;2022-12-18T18:42:55;53.97;;;25.67;;
9667;SDS011;4872;48.316;10.650;2022-12-18T18:45:22;55.13;;;27.33;;
9667;SDS011;4872;48.316;10.650;2022-12-18T18:47:49;49.90;;;26.10;;
9667;SDS011;4872;48.316;10.650;2022-12-18T18:50:15;52.47;;;26.07;;
9667;SDS011;4872;48.316;10.650;2022-12-18T18:52:42;46.40;;;24.53;;
9667;SDS011;4872;48.316;10.650;2022-12-18T18:55:09;50.63;;;25.30;;
9667;SDS011;4872;48.316;10.650;2022-12-18T18:57:37;49.43;;;26.03;;
9667;SDS011;4872;48.316;10.650;2022-12-18T19:00:04;43.03;;;25.23;;
9667;SDS011;4872;48.316;10.650;2022-12-18T19:02:33;52.90;;;26.07;;
9667;SDS011;4872;48.316;10.650;2022-12-18T19:05:00;48.17;;;25.50;;
9667;SDS011;4872;48.316;10.650;2022-12-18T19:07:27;49.43;;;26.17;;
9667;SDS011;4872;48.316;10.650;2022-12-18T19:09:54;50.83;;;25.80;;
9667;SDS011;4872;48.316;10.650;2022-12-18T19:12:21;50.17;;;26.97;;
9667;SDS011;4872;48.316;10.650;2022-12-18T19:15:07;47.20;;;26.10;;
9667;SDS011;4872;48.316;10.650;2022-12-18T19:17:34;53.00;;;25.03;;
9667;SDS011;4872;48.316;10.650;2022-12-18T19:20:01;50.87;;;25.40;;
9667;SDS011;4872;48.316;10.650;2022-12-18T19:22:28;47.27;;;26.50;;
9667;SDS011;4872;48.316;10.650;2022-12-18T19:24:55;53.13;;;25.73;;
9667;SDS011;4872;48.316;10.650;2022-12-18T19:27:22;51.43;;;25.63;;
9667;SDS011;4872;48.316;10.650;2022-12-18T19:29:49;51.83;;;26.70;;
9667;SDS011;4872;48.316;10.650;2022-12-18T19:32:19;49.20;;;27.20;;
9667;SDS011;4872;48.316;10.650;2022-12-18T19:34:46;53.57;;;26.27;;
9667;SDS011;4872;48.316;10.650;2022-12-18T19:37:13;50.10;;;26.30;;
9667;SDS011;4872;48.316;10.650;2022-12-18T19:39:40;52.50;;;25.73;;
9667;SDS011;4872;48.316;10.650;2022-12-18T19:42:07;52.57;;;27.10;;
9667;SDS011;4872;48.316;10.650;2022-12-18T19:44:33;51.20;;;25.27;;
9667;SDS011;4872;48.316;10.650;2022-12-18T19:47:00;53.57;;;26.23;;
9667;SDS011;4872;48.316;10.650;2022-12-18T19:49:28;49.00;;;25.90;;